createdAt,value
2023-02-11T00:02:08.273Z,34.20
2023-02-11T00:04:38.147Z,35.17
2023-02-11T00:07:07.326Z,49.67
2023-02-11T00:09:38.775Z,32.83
2023-02-11T00:12:08.171Z,43.90
2023-02-11T00:14:39.154Z,34.13
2023-02-11T00:17:08.336Z,35.83
2023-02-11T00:19:37.676Z,34.50
2023-02-11T00:22:06.863Z,43.88
2023-02-11T00:24:38.232Z,40.78
2023-02-11T00:27:07.436Z,42.22
2023-02-11T00:29:37.769Z,43.47
2023-02-11T00:32:09.082Z,45.20
2023-02-11T00:34:39.233Z,38.03
2023-02-11T00:37:08.467Z,42.35
2023-02-11T00:39:39.291Z,47.78
2023-02-11T00:42:08.413Z,32.10
2023-02-11T00:44:37.842Z,34.53
2023-02-11T00:47:07.214Z,47.40
2023-02-11T00:49:37.046Z,52.05
2023-02-11T00:52:06.388Z,29.73
2023-02-11T00:54:38.507Z,49.20
2023-02-11T00:57:09.493Z,44.55
2023-02-11T00:59:39.116Z,32.28
2023-02-11T01:02:08.254Z,42.65
2023-02-11T01:07:07.913Z,45.95
2023-02-11T01:09:41.881Z,45.85
2023-02-11T01:12:11.357Z,51.03
2023-02-11T01:14:43.410Z,39.65
2023-02-11T01:17:13.631Z,50.90
2023-02-11T01:19:44.095Z,42.38
2023-02-11T01:22:13.285Z,49.03
2023-02-11T01:24:43.985Z,33.90
2023-02-11T01:27:13.259Z,34.17
2023-02-11T01:29:42.799Z,49.28
2023-02-11T01:32:12.122Z,46.97
2023-02-11T01:34:41.432Z,37.03
2023-02-11T01:37:11.081Z,35.28
2023-02-11T01:39:40.426Z,51.13
2023-02-11T01:42:15.284Z,35.10
2023-02-11T01:44:44.876Z,46.22
2023-02-11T01:47:13.993Z,36.90
2023-02-11T01:49:47.215Z,53.85
2023-02-11T01:52:22.243Z,44.10
2023-02-11T01:55:13.064Z,45.22
2023-02-11T01:57:49.482Z,36.55
2023-02-11T02:00:24.425Z,33.22
2023-02-11T02:02:59.987Z,35.55
2023-02-11T02:05:35.920Z,37.60
2023-02-11T02:08:10.929Z,33.65
2023-02-11T02:10:44.579Z,37.85
2023-02-11T02:13:15.841Z,34.60
2023-02-11T02:15:52.069Z,29.60
2023-02-11T02:18:35.161Z,38.50
2023-02-11T02:21:31.623Z,35.58
2023-02-11T02:24:33.685Z,32.17
2023-02-11T02:27:45.156Z,32.03
2023-02-11T02:30:51.049Z,40.28
2023-02-11T02:33:37.853Z,45.00
2023-02-11T02:36:19.483Z,40.47
2023-02-11T02:38:54.296Z,44.67
2023-02-11T02:41:28.448Z,44.22
2023-02-11T02:43:58.566Z,52.75
2023-02-11T02:46:30.826Z,39.05
2023-02-11T02:49:02.339Z,50.95
2023-02-11T02:52:05.172Z,38.85
2023-02-11T02:55:13.946Z,32.72
2023-02-11T02:58:05.228Z,42.25
2023-02-11T03:00:44.326Z,31.70
2023-02-11T03:03:24.999Z,29.95
2023-02-11T03:06:02.504Z,35.45
2023-02-11T03:08:38.203Z,34.67
2023-02-11T03:11:09.019Z,19.50
2023-02-11T03:13:40.887Z,35.45
2023-02-11T03:16:14.900Z,39.85
2023-02-11T03:18:50.583Z,24.67
2023-02-11T03:21:22.377Z,21.50
2023-02-11T03:23:55.208Z,24.42
2023-02-11T03:26:29.752Z,25.05
2023-02-11T03:29:06.497Z,30.80
2023-02-11T03:31:43.003Z,24.00
2023-02-11T03:34:16.757Z,34.35
2023-02-11T03:36:53.349Z,25.45
2023-02-11T03:39:26.956Z,30.58
2023-02-11T03:42:00.116Z,31.58
2023-02-11T03:44:36.133Z,31.23
2023-02-11T03:47:10.677Z,31.02
2023-02-11T03:49:41.616Z,33.17
2023-02-11T03:52:15.361Z,24.17
2023-02-11T03:54:47.059Z,37.30
2023-02-11T03:57:16.694Z,24.90
2023-02-11T03:59:53.804Z,31.75
2023-02-11T04:02:26.428Z,32.35
2023-02-11T04:04:55.679Z,34.75
2023-02-11T04:07:26.855Z,21.60
2023-02-11T04:09:56.157Z,34.40
2023-02-11T04:12:25.860Z,22.30
2023-02-11T04:14:54.940Z,28.98
2023-02-11T04:17:24.423Z,22.60
2023-02-11T04:19:53.616Z,23.13
2023-02-11T04:22:22.987Z,26.55
2023-02-11T04:24:53.970Z,20.65
2023-02-11T04:27:23.764Z,20.35
2023-02-11T04:29:52.921Z,21.38
2023-02-11T04:32:22.362Z,19.15
2023-02-11T04:34:51.976Z,21.60
2023-02-11T04:39:50.247Z,15.82
2023-02-11T04:42:21.134Z,14.73
2023-02-11T04:44:50.327Z,28.52
2023-02-11T04:47:19.929Z,12.63
2023-02-11T04:49:49.394Z,12.45
2023-02-11T04:52:18.720Z,13.98
2023-02-11T04:54:48.087Z,21.65
2023-02-11T04:57:17.431Z,11.73
2023-02-11T04:59:49.077Z,22.05
2023-02-11T05:02:18.605Z,16.05
2023-02-11T05:04:47.744Z,19.90
2023-02-11T05:07:17.163Z,19.25
2023-02-11T05:09:46.408Z,21.65
2023-02-11T05:12:41.179Z,14.82
2023-02-11T05:15:12.054Z,19.70
2023-02-11T05:17:41.629Z,11.82
2023-02-11T05:20:11.936Z,14.18
2023-02-11T05:22:41.600Z,18.17
2023-02-11T05:25:10.994Z,15.63
2023-02-11T05:30:12.215Z,16.50
2023-02-11T05:32:41.784Z,15.98
2023-02-11T05:35:10.808Z,18.42
2023-02-11T05:37:40.560Z,14.55
2023-02-11T05:40:11.122Z,11.82
2023-02-11T05:42:40.729Z,17.60
2023-02-11T05:45:11.787Z,13.27
2023-02-11T05:47:41.469Z,15.35
2023-02-11T05:50:11.052Z,15.68
2023-02-11T05:55:09.823Z,14.07
2023-02-11T05:57:39.148Z,14.77
2023-02-11T06:00:10.195Z,13.95
2023-02-11T06:02:46.071Z,19.27
2023-02-11T06:05:15.338Z,12.05
2023-02-11T06:07:44.704Z,11.35
2023-02-11T06:10:13.920Z,12.23
2023-02-11T06:12:43.287Z,10.98
2023-02-11T06:15:12.424Z,8.90
2023-02-11T06:17:41.746Z,21.27
2023-02-11T06:20:13.071Z,11.27
2023-02-11T06:22:42.635Z,10.35
2023-02-11T06:25:12.196Z,8.32
2023-02-11T06:27:41.682Z,12.23
2023-02-11T06:30:12.095Z,13.63
2023-02-11T06:32:44.789Z,12.77
2023-02-11T06:35:16.428Z,15.52
2023-02-11T06:37:46.966Z,10.15
2023-02-11T06:40:16.668Z,15.73
2023-02-11T06:45:15.134Z,15.35
2023-02-11T06:47:44.647Z,17.60
2023-02-11T06:50:15.974Z,14.27
2023-02-11T06:52:45.437Z,17.55
2023-02-11T06:55:14.531Z,19.35
2023-02-11T06:57:43.854Z,11.27
2023-02-11T07:00:14.588Z,11.73
2023-02-11T07:02:44.121Z,10.35
2023-02-11T07:05:14.870Z,15.32
2023-02-11T07:07:44.326Z,9.98
2023-02-11T07:10:13.468Z,16.50
2023-02-11T07:12:42.949Z,8.13
2023-02-11T07:15:12.250Z,11.15
2023-02-11T07:17:41.625Z,14.30
2023-02-11T07:20:12.522Z,11.32
2023-02-11T07:22:43.361Z,10.43
2023-02-11T07:25:12.637Z,11.52
2023-02-11T07:27:42.256Z,11.15
2023-02-11T07:30:13.209Z,11.00
2023-02-11T07:32:45.086Z,12.95
2023-02-11T07:35:14.845Z,15.23
2023-02-11T07:37:45.773Z,12.20
2023-02-11T07:40:15.960Z,12.50
2023-02-11T07:42:45.560Z,10.55
2023-02-11T07:45:14.590Z,9.50
2023-02-11T07:47:43.920Z,8.70
2023-02-11T07:50:13.516Z,7.40
2023-02-11T07:55:13.128Z,8.88
2023-02-11T07:57:42.640Z,8.80
2023-02-11T08:00:13.043Z,6.10
2023-02-11T08:02:43.544Z,7.53
2023-02-11T08:05:12.741Z,5.15
2023-02-11T08:07:42.018Z,9.75
2023-02-11T08:10:13.144Z,4.97
2023-02-11T08:12:43.354Z,6.72
2023-02-11T08:15:13.672Z,4.80
2023-02-11T08:17:43.521Z,5.80
2023-02-11T08:20:13.114Z,6.57
2023-02-11T08:22:42.653Z,5.35
2023-02-11T08:25:13.100Z,6.88
2023-02-11T08:27:43.597Z,5.55
2023-02-11T08:30:14.214Z,8.30
2023-02-11T08:32:46.532Z,4.05
2023-02-11T08:37:44.860Z,3.50
2023-02-11T08:40:15.701Z,3.92
2023-02-11T08:42:45.290Z,5.05
2023-02-11T08:45:14.523Z,3.88
2023-02-11T08:47:44.479Z,6.90
2023-02-11T08:50:13.725Z,6.68
2023-02-11T08:52:43.295Z,3.95
2023-02-11T08:55:15.133Z,3.15
2023-02-11T08:57:44.716Z,5.82
2023-02-11T09:00:15.085Z,4.38
2023-02-11T09:02:45.078Z,6.65
2023-02-11T09:05:14.552Z,7.07
2023-02-11T09:07:43.872Z,7.45
2023-02-11T09:10:14.477Z,5.57
2023-02-11T09:12:44.108Z,3.80
2023-02-11T09:15:15.634Z,6.50
2023-02-11T09:17:44.934Z,5.15
2023-02-11T09:20:14.067Z,5.97
2023-02-11T09:22:43.415Z,9.02
2023-02-11T09:25:14.592Z,4.75
2023-02-11T09:27:44.402Z,3.80
2023-02-11T09:30:15.374Z,5.95
2023-02-11T09:32:44.984Z,5.03
2023-02-11T09:35:14.068Z,3.20
2023-02-11T09:37:43.880Z,5.63
2023-02-11T09:40:15.599Z,3.78
2023-02-11T09:42:53.009Z,2.60
2023-02-11T09:45:25.759Z,3.72
2023-02-11T09:47:57.684Z,6.35
2023-02-11T09:50:31.467Z,3.65
2023-02-11T09:53:03.851Z,3.75
2023-02-11T09:55:39.454Z,3.95
2023-02-11T09:58:15.333Z,3.97
2023-02-11T10:00:49.973Z,4.07
2023-02-11T10:03:43.096Z,7.53
2023-02-11T10:06:33.911Z,5.07
2023-02-11T10:09:14.724Z,7.63
2023-02-11T10:11:53.696Z,2.65
2023-02-11T10:14:51.602Z,4.53
2023-02-11T10:17:27.790Z,4.50
2023-02-11T10:20:15.804Z,4.68
2023-02-11T10:22:50.491Z,8.80
2023-02-11T10:25:24.977Z,3.58
2023-02-11T10:27:59.199Z,5.15
2023-02-11T10:30:33.513Z,3.90
2023-02-11T10:33:08.266Z,3.50
2023-02-11T10:35:39.216Z,3.08
2023-02-11T10:38:09.720Z,8.57
2023-02-11T10:40:39.924Z,6.22
2023-02-11T10:43:14.783Z,7.03
2023-02-11T10:45:47.728Z,6.95
2023-02-11T10:48:43.117Z,8.98
2023-02-11T10:51:22.094Z,10.63
2023-02-11T10:54:13.833Z,6.72
2023-02-11T10:56:47.979Z,11.05
2023-02-11T10:59:28.121Z,12.10
2023-02-11T11:02:03.010Z,15.15
2023-02-11T11:04:40.748Z,10.98
2023-02-11T11:07:20.538Z,20.02
2023-02-11T11:09:53.619Z,11.93
2023-02-11T11:12:36.420Z,18.38
2023-02-11T11:15:19.972Z,9.68
2023-02-11T11:17:50.385Z,5.97
2023-02-11T11:20:27.363Z,14.73
2023-02-11T11:23:13.413Z,14.02
2023-02-11T11:25:46.053Z,7.07
2023-02-11T11:28:25.488Z,6.10
2023-02-11T11:30:58.811Z,15.20
2023-02-11T11:33:32.258Z,11.45
2023-02-11T11:36:05.789Z,10.88
2023-02-11T11:38:38.061Z,7.57
2023-02-11T11:41:24.127Z,12.25
2023-02-11T11:44:01.833Z,12.50
2023-02-11T11:46:35.185Z,11.18
2023-02-11T11:49:23.442Z,11.02
2023-02-11T11:52:03.721Z,4.45
2023-02-11T11:54:35.479Z,16.67
2023-02-11T11:57:17.550Z,13.82
2023-02-11T11:59:55.543Z,12.15
2023-02-11T12:05:25.488Z,11.68
2023-02-11T12:08:05.102Z,15.57
2023-02-11T12:10:49.919Z,19.65
2023-02-11T12:13:36.013Z,12.40
2023-02-11T12:16:16.102Z,14.63
2023-02-11T12:19:18.588Z,8.15
2023-02-11T12:21:57.081Z,21.70
2023-02-11T12:24:42.428Z,12.55
2023-02-11T12:27:19.844Z,16.38
2023-02-11T12:30:02.719Z,9.73
2023-02-11T12:32:44.677Z,15.60
2023-02-11T12:35:34.554Z,17.65
2023-02-11T12:38:33.015Z,14.35
2023-02-11T12:41:40.617Z,15.18
2023-02-11T12:44:19.131Z,24.77
2023-02-11T12:46:58.085Z,17.17
2023-02-11T12:49:42.002Z,21.80
2023-02-11T12:52:33.360Z,13.88
2023-02-11T12:55:09.035Z,12.43
2023-02-11T12:57:42.087Z,12.23
2023-02-11T13:00:18.609Z,11.27
2023-02-11T13:02:55.745Z,23.30
2023-02-11T13:05:30.961Z,9.77
2023-02-11T13:08:07.073Z,14.77
2023-02-11T13:10:39.592Z,11.52
2023-02-11T13:13:19.469Z,13.75
2023-02-11T13:15:53.293Z,12.45
2023-02-11T13:18:37.120Z,4.70
2023-02-11T13:21:36.180Z,18.60
2023-02-11T13:24:16.948Z,10.68
2023-02-11T13:26:55.334Z,19.08
2023-02-11T13:29:32.951Z,14.23
2023-02-11T13:32:09.902Z,11.95
2023-02-11T13:35:00.027Z,23.27
2023-02-11T13:37:37.624Z,16.88
2023-02-11T13:40:23.447Z,10.82
2023-02-11T13:42:55.683Z,16.80
2023-02-11T13:45:32.637Z,20.35
2023-02-11T13:48:03.993Z,16.20
2023-02-11T13:50:39.321Z,22.92
2023-02-11T13:53:10.008Z,19.73
2023-02-11T13:55:43.747Z,20.25
2023-02-11T13:58:37.357Z,16.05
2023-02-11T14:01:07.533Z,16.45
2023-02-11T14:03:57.299Z,20.30
2023-02-11T14:09:57.323Z,23.67
2023-02-11T14:12:36.236Z,21.63
2023-02-11T14:15:26.437Z,21.80
2023-02-11T14:17:55.848Z,18.00
2023-02-11T14:20:45.428Z,7.40
2023-02-11T14:23:31.098Z,14.70
2023-02-11T14:26:14.765Z,14.77
2023-02-11T14:28:46.876Z,17.10
2023-02-11T14:31:23.696Z,23.98
2023-02-11T14:34:17.197Z,16.08
2023-02-11T14:37:24.379Z,21.20
2023-02-11T14:40:06.958Z,16.85
2023-02-11T14:42:43.250Z,16.77
2023-02-11T14:45:23.014Z,18.90
2023-02-11T14:47:59.746Z,21.85
2023-02-11T14:50:35.570Z,16.88
2023-02-11T14:53:06.328Z,14.95
2023-02-11T14:55:41.253Z,25.60
2023-02-11T14:58:17.004Z,22.98
2023-02-11T15:00:55.039Z,22.85
2023-02-11T15:03:37.789Z,19.20
2023-02-11T15:06:22.429Z,15.40
2023-02-11T15:08:54.686Z,19.42
2023-02-11T15:11:26.455Z,14.75
2023-02-11T15:13:59.775Z,20.75
2023-02-11T15:16:31.132Z,18.83
2023-02-11T15:19:06.166Z,15.27
2023-02-11T15:21:38.053Z,20.02
2023-02-11T15:24:24.167Z,15.57
2023-02-11T15:27:01.790Z,20.55
2023-02-11T15:29:40.426Z,14.25
2023-02-11T15:32:17.176Z,19.77
2023-02-11T15:34:49.000Z,18.90
2023-02-11T15:37:23.104Z,17.42
2023-02-11T15:39:53.943Z,21.27
2023-02-11T15:42:26.565Z,23.08
2023-02-11T15:45:24.423Z,14.70
2023-02-11T15:47:58.064Z,18.52
2023-02-11T15:50:30.994Z,18.33
2023-02-11T15:53:03.953Z,19.90
2023-02-11T15:55:34.701Z,18.88
2023-02-11T15:58:04.016Z,14.27
2023-02-11T16:00:38.393Z,16.15
2023-02-11T16:03:09.008Z,21.02
2023-02-11T16:05:40.983Z,16.55
2023-02-11T16:08:24.640Z,16.88
2023-02-11T16:10:58.974Z,17.80
2023-02-11T16:13:30.866Z,18.70
2023-02-11T16:16:05.758Z,17.92
2023-02-11T16:18:40.260Z,22.73
2023-02-11T16:21:17.493Z,18.42
2023-02-11T16:23:52.823Z,17.40
2023-02-11T16:26:28.692Z,18.38
2023-02-11T16:29:14.224Z,23.85
2023-02-11T16:31:46.461Z,17.50
2023-02-11T16:34:19.900Z,14.73
2023-02-11T16:36:50.435Z,25.85
2023-02-11T16:39:22.418Z,16.83
2023-02-11T16:41:53.514Z,15.18
2023-02-11T16:44:23.223Z,17.27
2023-02-11T16:46:53.309Z,19.95
2023-02-11T16:49:27.895Z,11.10
2023-02-11T16:52:01.530Z,13.35
2023-02-11T16:54:31.484Z,16.42
2023-02-11T16:57:01.273Z,13.90
2023-02-11T16:59:30.338Z,10.13
2023-02-11T17:02:00.247Z,13.02
2023-02-11T17:04:33.859Z,16.38
2023-02-11T17:07:03.500Z,15.00
2023-02-11T17:09:32.729Z,8.02
2023-02-11T17:14:31.380Z,32.53
2023-02-11T17:17:01.885Z,18.45
2023-02-11T17:19:34.774Z,10.70
2023-02-11T17:22:05.034Z,9.93
2023-02-11T17:24:34.363Z,6.75
2023-02-11T17:27:03.738Z,7.50
2023-02-11T17:29:32.874Z,4.82
2023-02-11T17:32:02.224Z,7.47
2023-02-11T17:34:34.668Z,3.28
2023-02-11T17:37:09.240Z,5.70
2023-02-11T17:39:39.709Z,4.32
2023-02-11T17:42:11.657Z,6.88
2023-02-11T17:44:41.942Z,7.72
2023-02-11T17:47:11.399Z,6.28
2023-02-11T17:49:42.785Z,5.05
2023-02-11T17:52:12.259Z,7.03
2023-02-11T17:54:41.317Z,11.98
2023-02-11T17:57:14.843Z,8.07
2023-02-11T17:59:45.340Z,13.55
2023-02-11T18:02:14.734Z,9.07
2023-02-11T18:04:45.443Z,5.22
2023-02-11T18:07:14.948Z,5.35
2023-02-11T18:09:46.046Z,4.55
2023-02-11T18:12:17.922Z,3.40
2023-02-11T18:14:47.465Z,6.68
2023-02-11T18:17:16.960Z,3.72
2023-02-11T18:19:47.939Z,5.82
2023-02-11T18:22:18.255Z,4.07
2023-02-11T18:24:52.462Z,11.23
2023-02-11T18:27:22.935Z,8.50
2023-02-11T18:29:52.536Z,9.18
2023-02-11T18:32:22.030Z,6.75
2023-02-11T18:34:52.570Z,5.00
2023-02-11T18:37:22.090Z,5.75
2023-02-11T18:39:51.167Z,10.27
2023-02-11T18:42:20.701Z,6.35
2023-02-11T18:44:49.836Z,2.78
2023-02-11T18:47:19.326Z,5.82
2023-02-11T18:49:48.912Z,4.85
2023-02-11T18:54:51.796Z,8.43
2023-02-11T18:57:21.462Z,10.80
2023-02-11T18:59:50.891Z,6.55
2023-02-11T19:04:49.294Z,3.08
2023-02-11T19:07:21.678Z,3.40
2023-02-11T19:09:51.306Z,8.68
2023-02-11T19:12:20.882Z,4.00
2023-02-11T19:14:50.229Z,6.63
2023-02-11T19:17:19.619Z,3.95
2023-02-11T19:19:49.500Z,5.10
2023-02-11T19:22:20.887Z,3.58
2023-02-11T19:24:52.980Z,5.22
2023-02-11T19:27:22.581Z,5.50
2023-02-11T19:29:52.370Z,7.63
2023-02-11T19:34:51.928Z,4.93
2023-02-11T19:37:24.762Z,7.75
2023-02-11T19:39:55.226Z,4.00
2023-02-11T19:42:27.666Z,4.63
2023-02-11T19:44:57.419Z,4.68
2023-02-11T19:49:57.300Z,4.68
2023-02-11T19:52:30.082Z,4.18
2023-02-11T19:54:59.576Z,6.60
2023-02-11T19:57:30.676Z,5.70
2023-02-11T20:00:01.578Z,4.57
2023-02-11T20:02:41.613Z,6.25
2023-02-11T20:05:11.039Z,5.93
2023-02-11T20:07:41.964Z,4.75
2023-02-11T20:10:12.012Z,11.85
2023-02-11T20:12:44.039Z,6.90
2023-02-11T20:15:13.444Z,12.50
2023-02-11T20:17:43.083Z,5.97
2023-02-11T20:20:14.163Z,6.40
2023-02-11T20:22:47.064Z,6.70
2023-02-11T20:25:19.392Z,5.88
2023-02-11T20:27:49.224Z,7.55
2023-02-11T20:30:19.560Z,5.55
2023-02-11T20:32:52.856Z,5.47
2023-02-11T20:35:22.503Z,7.25
2023-02-11T20:37:53.273Z,10.80
2023-02-11T20:40:23.012Z,6.82
2023-02-11T20:45:21.661Z,7.10
2023-02-11T20:47:51.150Z,10.38
2023-02-11T20:50:21.297Z,5.25
2023-02-11T20:52:52.334Z,4.63
2023-02-11T20:55:22.643Z,4.40
2023-02-11T20:57:55.487Z,5.03
2023-02-11T21:00:24.795Z,3.22
2023-02-11T21:02:57.762Z,3.28
2023-02-11T21:05:27.297Z,5.03
2023-02-11T21:08:00.534Z,4.20
2023-02-11T21:10:32.546Z,8.23
2023-02-11T21:13:03.204Z,8.73
2023-02-11T21:15:32.721Z,6.65
2023-02-11T21:18:02.072Z,2.42
2023-02-11T21:20:31.257Z,12.43
2023-02-11T21:23:02.041Z,8.45
2023-02-11T21:25:31.558Z,6.05
2023-02-11T21:28:01.114Z,7.68
2023-02-11T21:30:30.763Z,9.80
2023-02-11T21:33:00.491Z,8.73
2023-02-11T21:35:29.516Z,9.68
2023-02-11T21:37:58.871Z,13.57
2023-02-11T21:40:29.715Z,11.90
2023-02-11T21:43:01.130Z,13.88
2023-02-11T21:45:32.306Z,12.98
2023-02-11T21:48:02.068Z,9.93
2023-02-11T21:50:32.924Z,7.75
2023-02-11T21:53:05.995Z,6.43
2023-02-11T21:55:38.094Z,4.72
2023-02-11T21:58:08.574Z,6.90
2023-02-11T22:00:37.968Z,6.03
2023-02-11T22:03:07.632Z,5.18
2023-02-11T22:05:40.335Z,9.52
2023-02-11T22:08:09.829Z,7.50
2023-02-11T22:10:40.413Z,7.40
2023-02-11T22:13:09.987Z,9.63
2023-02-11T22:15:39.039Z,7.90
2023-02-11T22:18:08.478Z,6.55
2023-02-11T22:20:37.868Z,8.10
2023-02-11T22:23:07.178Z,6.40
2023-02-11T22:25:39.048Z,6.25
2023-02-11T22:28:08.600Z,7.07
2023-02-11T22:30:38.072Z,5.85
2023-02-11T22:35:36.356Z,3.38
2023-02-11T22:38:05.932Z,3.17
2023-02-11T22:40:34.980Z,6.38
2023-02-11T22:43:06.160Z,3.78
2023-02-11T22:45:35.776Z,6.18
2023-02-11T22:48:05.382Z,5.55
2023-02-11T22:50:36.603Z,10.93
2023-02-11T22:53:06.008Z,6.15
2023-02-11T22:55:39.359Z,5.83
2023-02-11T22:58:10.216Z,4.55
2023-02-11T23:00:41.916Z,4.47
2023-02-11T23:03:13.466Z,6.45
2023-02-11T23:05:43.730Z,8.43
2023-02-11T23:08:13.839Z,7.22
2023-02-11T23:10:43.045Z,7.13
2023-02-11T23:13:13.771Z,10.63
2023-02-11T23:15:44.427Z,7.05
2023-02-11T23:18:14.901Z,13.25
2023-02-11T23:20:45.866Z,7.82
2023-02-11T23:23:15.749Z,11.32
2023-02-11T23:25:45.591Z,11.30
2023-02-11T23:28:16.624Z,10.88
2023-02-11T23:30:45.805Z,4.90
2023-02-11T23:33:15.139Z,8.57
2023-02-11T23:35:44.240Z,4.15
2023-02-11T23:38:13.578Z,6.32
2023-02-11T23:40:43.134Z,3.65
2023-02-11T23:43:12.466Z,5.32
2023-02-11T23:45:43.101Z,10.18
2023-02-11T23:48:12.600Z,13.52
2023-02-11T23:50:44.096Z,8.77
2023-02-11T23:53:13.730Z,126.28
2023-02-11T23:55:43.379Z,10.38
2023-02-11T23:58:14.697Z,14.70
